createdAt,value
2022-12-18T00:01:37.018Z,96467.44
2022-12-18T00:04:05.830Z,96465.84
2022-12-18T00:06:33.525Z,96473.19
2022-12-18T00:09:01.408Z,96474.81
2022-12-18T00:11:28.791Z,96470.31
2022-12-18T00:13:57.388Z,96469.91
2022-12-18T00:16:25.821Z,96468.28
2022-12-18T00:18:55.106Z,96468.28
2022-12-18T00:21:22.009Z,96465.63
2022-12-18T00:23:49.838Z,96459.69
2022-12-18T00:26:18.080Z,96451.53
2022-12-18T00:28:45.495Z,96466.22
2022-12-18T00:31:17.844Z,96466.66
2022-12-18T00:33:44.752Z,96463.38
2022-12-18T00:36:14.554Z,96462.56
2022-12-18T00:38:41.921Z,96462.56
2022-12-18T00:41:11.437Z,96462.56
2022-12-18T00:43:39.486Z,96460.50
2022-12-18T00:46:06.733Z,96466.03
2022-12-18T00:48:33.723Z,96467.88
2022-12-18T00:51:00.290Z,96476.66
2022-12-18T00:53:26.812Z,96486.47
2022-12-18T00:55:53.307Z,96489.94
2022-12-18T00:58:19.819Z,96489.34
2022-12-18T01:00:46.506Z,96494.66
2022-12-18T01:03:15.747Z,96493.22
2022-12-18T01:05:44.163Z,96489.16
2022-12-18T01:08:11.835Z,96498.75
2022-12-18T01:10:41.867Z,96498.53
2022-12-18T01:13:08.800Z,96498.31
2022-12-18T01:15:35.797Z,96492.81
2022-12-18T01:18:02.388Z,96492.59
2022-12-18T01:20:29.090Z,96501.63
2022-12-18T01:22:55.622Z,96497.91
2022-12-18T01:25:22.118Z,96500.38
2022-12-18T01:27:51.000Z,96499.16
2022-12-18T01:30:17.667Z,96508.97
2022-12-18T01:32:45.589Z,96506.53
2022-12-18T01:35:12.093Z,96513.66
2022-12-18T01:37:38.704Z,96521.03
2022-12-18T01:40:06.019Z,96523.28
2022-12-18T01:42:32.506Z,96530.44
2022-12-18T01:45:12.430Z,96545.34
2022-12-18T01:47:51.669Z,96550.66
2022-12-18T01:50:25.681Z,96553.31
2022-12-18T01:53:00.857Z,96559.28
2022-12-18T01:55:31.785Z,96549.03
2022-12-18T01:58:00.230Z,96553.16
2022-12-18T02:00:27.886Z,96548.44
2022-12-18T02:02:54.920Z,96536.56
2022-12-18T02:05:35.093Z,96536.56
2022-12-18T02:08:23.009Z,96546.38
2022-12-18T02:11:08.269Z,96538.19
2022-12-18T02:14:09.548Z,96540.03
2022-12-18T02:16:57.230Z,96530.41
2022-12-18T02:19:26.833Z,96524.28
2022-12-18T02:22:25.843Z,96531.25
2022-12-18T02:25:06.102Z,96532.88
2022-12-18T02:27:34.985Z,96534.31
2022-12-18T02:30:03.173Z,96537.56
2022-12-18T02:32:34.762Z,96532.47
2022-12-18T02:35:03.518Z,96532.47
2022-12-18T02:37:32.270Z,96518.56
2022-12-18T02:40:04.294Z,96519.56
2022-12-18T02:42:33.805Z,96518.16
2022-12-18T02:45:02.084Z,96525.94
2022-12-18T02:47:33.675Z,96529.59
2022-12-18T02:50:11.653Z,96533.47
2022-12-18T02:53:05.811Z,96524.50
2022-12-18T02:55:45.367Z,96524.28
2022-12-18T02:59:02.402Z,96524.09
2022-12-18T03:01:56.350Z,96522.22
2022-12-18T03:04:31.595Z,96515.28
2022-12-18T03:07:03.894Z,96518.56
2022-12-18T03:09:39.316Z,96521.22
2022-12-18T03:12:32.628Z,96520.63
2022-12-18T03:15:04.762Z,96526.94
2022-12-18T03:17:34.227Z,96522.22
2022-12-18T03:20:09.594Z,96530.41
2022-12-18T03:22:39.230Z,96524.28
2022-12-18T03:25:11.571Z,96527.75
2022-12-18T03:27:43.261Z,96533.72
2022-12-18T03:30:14.137Z,96530.22
2022-12-18T03:32:48.557Z,96522.22
2022-12-18T03:35:24.242Z,96516.91
2022-12-18T03:37:51.120Z,96516.09
2022-12-18T03:40:19.271Z,96512.84
2022-12-18T03:42:51.806Z,96511.41
2022-12-18T03:45:33.554Z,96514.06
2022-12-18T03:48:11.849Z,96513.06
2022-12-18T03:50:56.444Z,96515.72
2022-12-18T03:53:46.310Z,96531.88
2022-12-18T03:56:15.905Z,96524.69
2022-12-18T03:58:46.584Z,96532.69
2022-12-18T04:01:20.939Z,96534.94
2022-12-18T04:03:51.072Z,96528.16
2022-12-18T04:06:20.250Z,96523.69
2022-12-18T04:08:48.182Z,96518.97
2022-12-18T04:11:18.097Z,96525.94
2022-12-18T04:13:46.268Z,96523.28
2022-12-18T04:16:21.916Z,96527.75
2022-12-18T04:18:52.211Z,96532.06
2022-12-18T04:21:20.367Z,96527.75
2022-12-18T04:23:48.288Z,96537.59
2022-12-18T04:26:15.004Z,96545.16
2022-12-18T04:29:00.395Z,96539.00
2022-12-18T04:31:29.682Z,96530.44
2022-12-18T04:33:56.861Z,96525.09
2022-12-18T04:36:23.817Z,96519.78
2022-12-18T04:38:50.321Z,96527.56
2022-12-18T04:41:17.655Z,96537.38
2022-12-18T04:43:47.264Z,96537.19
2022-12-18T04:46:14.254Z,96533.47
2022-12-18T04:48:41.506Z,96533.28
2022-12-18T04:51:08.547Z,96543.50
2022-12-18T04:53:35.599Z,96544.13
2022-12-18T04:56:09.887Z,96550.25
2022-12-18T04:58:37.675Z,96555.38
2022-12-18T05:01:04.556Z,96554.13
2022-12-18T05:03:31.844Z,96557.22
2022-12-18T05:06:01.101Z,96567.66
2022-12-18T05:08:27.665Z,96558.63
2022-12-18T05:11:00.860Z,96560.50
2022-12-18T05:13:28.325Z,96558.84
2022-12-18T05:15:55.594Z,96557.03
2022-12-18T05:18:23.988Z,96557.63
2022-12-18T05:20:52.220Z,96560.50
2022-12-18T05:23:20.358Z,96575.41
2022-12-18T05:25:54.369Z,96585.22
2022-12-18T05:28:22.261Z,96584.81
2022-12-18T05:30:55.676Z,96586.03
2022-12-18T05:33:23.531Z,96586.69
2022-12-18T05:36:00.986Z,96581.16
2022-12-18T05:38:28.784Z,96574.41
2022-12-18T05:40:56.381Z,96578.28
2022-12-18T05:43:24.045Z,96578.28
2022-12-18T05:45:51.101Z,96582.19
2022-12-18T05:48:18.190Z,96579.53
2022-12-18T05:50:46.743Z,96584.41
2022-12-18T05:53:14.788Z,96589.72
2022-12-18T05:55:42.730Z,96588.91
2022-12-18T05:58:10.261Z,96592.38
2022-12-18T06:00:39.067Z,96589.31
2022-12-18T06:03:05.682Z,96594.63
2022-12-18T06:05:39.818Z,96602.63
2022-12-18T06:08:06.682Z,96604.25
2022-12-18T06:10:33.414Z,96607.53
2022-12-18T06:13:00.108Z,96602.22
2022-12-18T06:15:26.728Z,96605.88
2022-12-18T06:17:53.237Z,96603.22
2022-12-18T06:20:19.954Z,96604.06
2022-12-18T06:22:46.444Z,96600.34
2022-12-18T06:25:12.991Z,96611.81
2022-12-18T06:27:39.669Z,96616.50
2022-12-18T06:30:07.167Z,96609.16
2022-12-18T06:32:33.729Z,96601.81
2022-12-18T06:35:00.180Z,96607.94
2022-12-18T06:37:26.757Z,96607.13
2022-12-18T06:39:54.338Z,96602.22
2022-12-18T06:42:20.824Z,96618.34
2022-12-18T06:44:47.331Z,96607.94
2022-12-18T06:47:13.882Z,96610.38
2022-12-18T06:49:40.635Z,96619.16
2022-12-18T06:52:07.290Z,96618.97
2022-12-18T06:54:33.769Z,96623.28
2022-12-18T06:57:00.244Z,96625.94
2022-12-18T06:59:26.757Z,96629.41
2022-12-18T07:01:54.691Z,96635.56
2022-12-18T07:04:21.346Z,96637.97
2022-12-18T07:06:50.868Z,96642.69
2022-12-18T07:09:17.349Z,96633.91
2022-12-18T07:11:43.820Z,96648.00
2022-12-18T07:14:10.405Z,96651.50
2022-12-18T07:16:37.003Z,96655.16
2022-12-18T07:19:03.620Z,96650.66
2022-12-18T07:21:30.200Z,96658.44
2022-12-18T07:23:57.209Z,96660.50
2022-12-18T07:26:24.074Z,96669.06
2022-12-18T07:28:50.957Z,96675.22
2022-12-18T07:31:21.541Z,96668.28
2022-12-18T07:33:49.096Z,96681.56
2022-12-18T07:36:16.049Z,96672.13
2022-12-18T07:38:42.665Z,96679.09
2022-12-18T07:41:13.834Z,96676.44
2022-12-18T07:43:42.040Z,96685.03
2022-12-18T07:46:09.911Z,96684.22
2022-12-18T07:48:36.544Z,96685.66
2022-12-18T07:51:05.667Z,96686.47
2022-12-18T07:53:33.343Z,96688.94
2022-12-18T07:56:26.043Z,96678.09
2022-12-18T07:58:48.735Z,96674.03
2022-12-18T08:01:15.666Z,96667.25
2022-12-18T08:03:42.861Z,96682.81
2022-12-18T08:06:10.665Z,96671.56
2022-12-18T08:08:37.385Z,96665.59
2022-12-18T08:11:07.240Z,96667.47
2022-12-18T08:13:33.721Z,96662.16
2022-12-18T08:16:08.081Z,96659.28
2022-12-18T08:18:36.356Z,96668.69
2022-12-18T08:21:13.879Z,96676.47
2022-12-18T08:23:42.959Z,96685.06
2022-12-18T08:26:10.995Z,96684.66
2022-12-18T08:28:37.621Z,96697.56
2022-12-18T08:31:05.192Z,96689.97
2022-12-18T08:33:32.100Z,96694.09
2022-12-18T08:36:02.506Z,96696.13
2022-12-18T08:38:29.325Z,96694.88
2022-12-18T08:41:03.819Z,96700.63
2022-12-18T08:43:30.789Z,96700.00
2022-12-18T08:45:57.832Z,96695.31
2022-12-18T08:48:24.459Z,96701.84
2022-12-18T08:50:58.137Z,96692.44
2022-12-18T08:53:30.346Z,96698.97
2022-12-18T08:56:03.383Z,96705.53
2022-12-18T08:58:30.419Z,96706.97
2022-12-18T09:01:09.359Z,96702.66
2022-12-18T09:03:36.574Z,96698.16
2022-12-18T09:06:03.421Z,96701.66
2022-12-18T09:08:30.096Z,96699.00
2022-12-18T09:10:56.796Z,96702.06
2022-12-18T09:13:23.660Z,96710.03
2022-12-18T09:15:52.732Z,96708.81
2022-12-18T09:18:21.012Z,96710.22
2022-12-18T09:20:47.889Z,96717.59
2022-12-18T09:23:14.636Z,96714.72
2022-12-18T09:25:41.230Z,96707.97
2022-12-18T09:28:12.778Z,96709.41
2022-12-18T09:30:41.148Z,96708.56
2022-12-18T09:33:07.750Z,96700.97
2022-12-18T09:35:41.640Z,96694.63
2022-12-18T09:38:09.836Z,96695.22
2022-12-18T09:40:43.090Z,96706.53
2022-12-18T09:43:15.980Z,96706.09
2022-12-18T09:45:47.136Z,96702.19
2022-12-18T09:48:27.437Z,96710.56
2022-12-18T09:50:59.177Z,96708.34
2022-12-18T09:53:31.577Z,96706.25
2022-12-18T09:55:58.591Z,96713.63
2022-12-18T09:58:35.940Z,96708.91
2022-12-18T10:01:02.697Z,96709.50
2022-12-18T10:03:29.262Z,96694.75
2022-12-18T10:06:02.669Z,96686.16
2022-12-18T10:08:39.089Z,96693.53
2022-12-18T10:11:43.738Z,96689.00
2022-12-18T10:14:37.408Z,96672.00
2022-12-18T10:17:33.444Z,96662.94
2022-12-18T10:20:06.225Z,96664.59
2022-12-18T10:22:54.104Z,96659.47
2022-12-18T10:25:34.115Z,96660.06
2022-12-18T10:28:11.445Z,96659.91
2022-12-18T10:30:40.494Z,96655.81
2022-12-18T10:33:10.453Z,96663.78
2022-12-18T10:35:37.345Z,96653.75
2022-12-18T10:38:06.884Z,96656.22
2022-12-18T10:40:48.030Z,96648.00
2022-12-18T10:43:15.932Z,96644.94
2022-12-18T10:45:44.485Z,96652.03
2022-12-18T10:48:22.729Z,96650.59
2022-12-18T10:53:38.559Z,96655.25
2022-12-18T10:56:07.379Z,96659.38
2022-12-18T10:58:39.113Z,96663.84
2022-12-18T11:01:17.498Z,96646.59
2022-12-18T11:04:01.624Z,96645.34
2022-12-18T11:06:29.771Z,96645.31
2022-12-18T11:09:18.834Z,96646.53
2022-12-18T11:11:50.933Z,96651.81
2022-12-18T11:14:26.678Z,96658.56
2022-12-18T11:17:24.316Z,96654.44
2022-12-18T11:19:42.553Z,96641.09
2022-12-18T11:22:25.841Z,96641.31
2022-12-18T11:28:03.278Z,96648.25
2022-12-18T11:30:37.543Z,96653.13
2022-12-18T11:33:06.581Z,96653.31
2022-12-18T11:35:42.001Z,96653.25
2022-12-18T11:38:33.693Z,96652.38
2022-12-18T11:41:02.924Z,96657.88
2022-12-18T11:43:42.898Z,96656.63
2022-12-18T11:46:19.944Z,96653.38
2022-12-18T11:49:14.016Z,96648.03
2022-12-18T11:51:50.958Z,96647.81
2022-12-18T11:54:18.503Z,96639.59
2022-12-18T11:57:15.366Z,96631.59
2022-12-18T11:59:41.874Z,96627.66
2022-12-18T12:02:34.634Z,96635.06
2022-12-18T12:05:04.079Z,96632.19
2022-12-18T12:07:42.649Z,96639.16
2022-12-18T12:10:14.946Z,96630.94
2022-12-18T12:12:58.514Z,96635.22
2022-12-18T12:16:01.096Z,96626.25
2022-12-18T12:18:45.880Z,96630.97
2022-12-18T12:21:26.751Z,96625.84
2022-12-18T12:24:10.509Z,96627.72
2022-12-18T12:26:45.053Z,96621.13
2022-12-18T12:29:31.652Z,96620.31
2022-12-18T12:32:23.624Z,96619.50
2022-12-18T12:35:02.718Z,96615.81
2022-12-18T12:37:43.036Z,96617.63
2022-12-18T12:40:49.768Z,96613.78
2022-12-18T12:43:13.269Z,96600.88
2022-12-18T12:45:47.562Z,96593.31
2022-12-18T12:48:22.529Z,96590.06
2022-12-18T12:50:50.155Z,96596.19
2022-12-18T12:53:27.715Z,96597.06
2022-12-18T12:55:55.264Z,96591.34
2022-12-18T12:58:33.870Z,96602.47
2022-12-18T13:01:33.563Z,96605.34
2022-12-18T13:04:26.671Z,96604.75
2022-12-18T13:07:03.055Z,96603.09
2022-12-18T13:09:34.922Z,96601.25
2022-12-18T13:12:11.975Z,96612.13
2022-12-18T13:14:40.791Z,96618.09
2022-12-18T13:17:24.967Z,96610.09
2022-12-18T13:19:53.473Z,96618.47
2022-12-18T13:22:37.262Z,96616.81
2022-12-18T13:25:24.722Z,96621.13
2022-12-18T13:28:06.664Z,96623.22
2022-12-18T13:30:33.198Z,96628.31
2022-12-18T13:33:22.984Z,96632.22
2022-12-18T13:35:49.505Z,96634.47
2022-12-18T13:38:41.084Z,96631.22
2022-12-18T13:41:16.443Z,96636.53
2022-12-18T13:43:52.380Z,96626.91
2022-12-18T13:46:42.965Z,96633.25
2022-12-18T13:49:15.658Z,96640.44
2022-12-18T13:51:45.006Z,96627.31
2022-12-18T13:54:18.893Z,96625.91
2022-12-18T13:56:47.544Z,96623.00
2022-12-18T13:59:25.325Z,96619.75
2022-12-18T14:01:59.516Z,96620.19
2022-12-18T14:04:31.339Z,96634.78
2022-12-18T14:07:18.013Z,96621.03
2022-12-18T14:09:58.129Z,96616.97
2022-12-18T14:12:32.079Z,96616.78
2022-12-18T14:15:01.279Z,96615.81
2022-12-18T14:17:27.837Z,96611.34
2022-12-18T14:19:55.034Z,96617.53
2022-12-18T14:22:26.638Z,96628.22
2022-12-18T14:25:21.231Z,96623.34
2022-12-18T14:27:51.994Z,96621.75
2022-12-18T14:30:24.852Z,96631.19
2022-12-18T14:33:11.537Z,96631.22
2022-12-18T14:35:52.816Z,96624.91
2022-12-18T14:38:25.645Z,96634.72
2022-12-18T14:41:16.841Z,96623.31
2022-12-18T14:43:45.540Z,96619.00
2022-12-18T14:46:35.448Z,96623.13
2022-12-18T14:49:20.444Z,96619.03
2022-12-18T14:51:55.893Z,96625.56
2022-12-18T14:54:24.075Z,96618.84
2022-12-18T14:56:57.335Z,96619.47
2022-12-18T14:59:26.156Z,96620.69
2022-12-18T15:02:17.048Z,96614.16
2022-12-18T15:04:44.503Z,96612.94
2022-12-18T15:07:20.113Z,96608.84
2022-12-18T15:10:08.112Z,96610.31
2022-12-18T15:12:39.764Z,96602.31
2022-12-18T15:15:26.575Z,96621.16
2022-12-18T15:18:00.995Z,96620.75
2022-12-18T15:20:32.388Z,96623.00
2022-12-18T15:22:59.078Z,96618.09
2022-12-18T15:25:37.384Z,96620.38
2022-12-18T15:28:05.146Z,96619.97
2022-12-18T15:30:31.619Z,96625.72
2022-12-18T15:33:18.587Z,96620.19
2022-12-18T15:35:47.102Z,96618.75
2022-12-18T15:38:13.801Z,96621.63
2022-12-18T15:40:40.439Z,96614.84
2022-12-18T15:43:10.063Z,96618.56
2022-12-18T15:45:36.540Z,96634.75
2022-12-18T15:48:03.199Z,96629.00
2022-12-18T15:50:29.872Z,96627.78
2022-12-18T15:52:57.561Z,96627.16
2022-12-18T15:55:25.253Z,96624.09
2022-12-18T15:57:51.814Z,96636.78
2022-12-18T16:00:18.758Z,96634.75
2022-12-18T16:02:45.756Z,96629.00
2022-12-18T16:05:17.208Z,96640.88
2022-12-18T16:07:44.810Z,96629.84
2022-12-18T16:10:12.225Z,96637.59
2022-12-18T16:12:39.149Z,96630.25
2022-12-18T16:15:06.705Z,96626.53
2022-12-18T16:17:34.278Z,96632.25
2022-12-18T16:20:00.889Z,96627.75
2022-12-18T16:22:29.732Z,96619.16
2022-12-18T16:24:57.410Z,96625.69
2022-12-18T16:27:24.847Z,96627.34
2022-12-18T16:29:51.608Z,96624.88
2022-12-18T16:32:20.279Z,96626.09
2022-12-18T16:34:47.392Z,96622.22
2022-12-18T16:37:15.142Z,96622.44
2022-12-18T16:39:42.247Z,96620.38
2022-12-18T16:42:16.693Z,96616.09
2022-12-18T16:44:43.592Z,96609.34
2022-12-18T16:47:11.387Z,96603.22
2022-12-18T16:49:41.411Z,96593.41
2022-12-18T16:52:08.367Z,96601.38
2022-12-18T16:54:34.867Z,96595.44
2022-12-18T16:57:01.421Z,96594.44
2022-12-18T16:59:28.120Z,96593.81
2022-12-18T17:01:55.317Z,96594.84
2022-12-18T17:04:21.843Z,96587.69
2022-12-18T17:06:48.422Z,96601.16
2022-12-18T17:09:15.802Z,96603.00
2022-12-18T17:11:45.004Z,96603.81
2022-12-18T17:14:15.749Z,96612.59
2022-12-18T17:16:42.261Z,96606.47
2022-12-18T17:19:13.746Z,96615.25
2022-12-18T17:21:44.465Z,96613.44
2022-12-18T17:24:10.941Z,96608.13
2022-12-18T17:26:37.630Z,96606.06
2022-12-18T17:29:04.433Z,96611.41
2022-12-18T17:31:31.383Z,96609.34
2022-12-18T17:33:58.671Z,96602.41
2022-12-18T17:36:26.267Z,96603.03
2022-12-18T17:38:56.090Z,96604.03
2022-12-18T17:41:23.628Z,96613.44
2022-12-18T17:43:57.870Z,96609.13
2022-12-18T17:46:25.452Z,96608.94
2022-12-18T17:48:54.860Z,96606.28
2022-12-18T17:51:21.656Z,96605.28
2022-12-18T17:53:48.294Z,96606.88
2022-12-18T17:56:16.924Z,96606.88
2022-12-18T17:58:44.092Z,96614.66
2022-12-18T18:01:23.321Z,96615.69
2022-12-18T18:03:52.880Z,96606.88
2022-12-18T18:06:20.606Z,96606.88
2022-12-18T18:08:47.418Z,96603.22
2022-12-18T18:11:18.079Z,96613.84
2022-12-18T18:13:47.206Z,96605.69
2022-12-18T18:16:13.968Z,96608.13
2022-12-18T18:18:40.514Z,96601.81
2022-12-18T18:21:10.023Z,96605.28
2022-12-18T18:23:37.321Z,96604.06
2022-12-18T18:26:08.332Z,96611.00
2022-12-18T18:28:36.276Z,96612.63
2022-12-18T18:31:06.371Z,96605.88
2022-12-18T18:33:33.381Z,96601.59
2022-12-18T18:35:59.934Z,96600.56
2022-12-18T18:38:26.878Z,96597.09
2022-12-18T18:41:03.854Z,96595.69
2022-12-18T18:43:31.113Z,96600.16
2022-12-18T18:45:58.709Z,96596.69
2022-12-18T18:48:26.544Z,96599.16
2022-12-18T18:51:00.790Z,96594.22
2022-12-18T18:53:27.761Z,96588.47
2022-12-18T18:56:34.496Z,96590.75
2022-12-18T18:58:44.559Z,96591.13
2022-12-18T19:01:17.507Z,96594.19
2022-12-18T19:03:45.096Z,96585.63
2022-12-18T19:06:16.264Z,96591.34
2022-12-18T19:08:43.813Z,96587.25
2022-12-18T19:11:11.365Z,96585.63
2022-12-18T19:13:37.953Z,96584.19
2022-12-18T19:16:09.065Z,96575.59
2022-12-18T19:18:37.020Z,96578.25
2022-12-18T19:21:06.523Z,96568.03
2022-12-18T19:23:34.623Z,96571.50
2022-12-18T19:26:27.071Z,96563.94
2022-12-18T19:28:50.010Z,96561.28
2022-12-18T19:31:24.374Z,96565.78
2022-12-18T19:33:52.114Z,96563.94
2022-12-18T19:36:21.436Z,96562.31
2022-12-18T19:38:50.280Z,96559.84
2022-12-18T19:41:18.035Z,96560.66
2022-12-18T19:43:45.903Z,96549.22
2022-12-18T19:46:18.295Z,96555.75
2022-12-18T19:48:45.464Z,96557.41
2022-12-18T19:51:16.343Z,96560.25
2022-12-18T19:53:42.997Z,96556.75
2022-12-18T19:56:15.813Z,96562.28
2022-12-18T19:58:43.417Z,96559.00
2022-12-18T20:01:10.583Z,96555.75
2022-12-18T20:03:39.087Z,96557.78
2022-12-18T20:06:18.894Z,96548.38
2022-12-18T20:08:46.011Z,96548.19
2022-12-18T20:11:12.815Z,96554.50
2022-12-18T20:13:39.637Z,96557.16
2022-12-18T20:16:06.627Z,96553.69
2022-12-18T20:18:33.587Z,96558.00
2022-12-18T20:21:00.145Z,96559.81
2022-12-18T20:23:28.167Z,96563.91
2022-12-18T20:25:55.381Z,96565.13
2022-12-18T20:28:23.610Z,96558.81
2022-12-18T20:30:50.677Z,96562.47
2022-12-18T20:33:17.430Z,96562.47
2022-12-18T20:35:43.976Z,96549.38
2022-12-18T20:38:10.562Z,96546.53
2022-12-18T20:40:41.428Z,96546.72
2022-12-18T20:43:12.433Z,96547.56
2022-12-18T20:45:42.046Z,96545.53
2022-12-18T20:48:10.446Z,96535.72
2022-12-18T20:50:37.017Z,96530.41
2022-12-18T20:53:04.002Z,96537.34
2022-12-18T20:55:30.497Z,96526.53
2022-12-18T20:57:57.880Z,96530.84
2022-12-18T21:00:24.368Z,96529.19
2022-12-18T21:02:51.012Z,96532.84
2022-12-18T21:05:17.640Z,96528.38
2022-12-18T21:07:44.218Z,96532.84
2022-12-18T21:10:10.802Z,96536.53
2022-12-18T21:12:42.682Z,96548.78
2022-12-18T21:15:28.534Z,96541.66
2022-12-18T21:17:55.499Z,96550.44
2022-12-18T21:20:22.057Z,96553.09
2022-12-18T21:22:48.548Z,96551.25
2022-12-18T21:25:15.026Z,96542.47
2022-12-18T21:27:41.596Z,96534.50
2022-12-18T21:30:08.626Z,96525.72
2022-12-18T21:32:35.095Z,96527.53
2022-12-18T21:35:01.713Z,96528.56
2022-12-18T21:37:28.180Z,96522.44
2022-12-18T21:39:54.765Z,96518.16
2022-12-18T21:42:21.261Z,96517.13
2022-12-18T21:44:48.427Z,96520.63
2022-12-18T21:47:21.516Z,96520.41
2022-12-18T21:49:50.772Z,96523.88
2022-12-18T21:52:17.323Z,96523.06
2022-12-18T21:54:43.888Z,96510.78
2022-12-18T21:57:10.792Z,96512.84
2022-12-18T21:59:40.150Z,96499.78
2022-12-18T22:02:25.036Z,96502.63
2022-12-18T22:04:51.725Z,96504.44
2022-12-18T22:07:18.605Z,96500.97
2022-12-18T22:09:45.177Z,96484.44
2022-12-18T22:12:13.628Z,96483.00
2022-12-18T22:14:40.591Z,96478.09
2022-12-18T22:17:07.086Z,96470.53
2022-12-18T22:19:39.613Z,96487.47
2022-12-18T22:22:09.332Z,96495.41
2022-12-18T22:24:35.848Z,96502.16
2022-12-18T22:27:06.433Z,96507.06
2022-12-18T22:29:32.945Z,96516.44
2022-12-18T22:32:00.815Z,96520.09
2022-12-18T22:34:27.337Z,96516.22
2022-12-18T22:36:54.291Z,96514.78
2022-12-18T22:39:26.137Z,96514.78
2022-12-18T22:41:55.775Z,96506.00
2022-12-18T22:44:22.627Z,96516.44
2022-12-18T22:47:03.516Z,96512.13
2022-12-18T22:49:32.388Z,96510.09
2022-12-18T22:52:00.466Z,96512.53
2022-12-18T22:54:27.110Z,96502.38
2022-12-18T22:56:53.557Z,96496.84
2022-12-18T22:59:23.030Z,96492.75
2022-12-18T23:01:50.845Z,96495.22
2022-12-18T23:04:18.189Z,96484.00
2022-12-18T23:06:46.496Z,96480.13
2022-12-18T23:09:16.337Z,96480.94
2022-12-18T23:11:42.985Z,96481.34
2022-12-18T23:14:09.564Z,96473.19
2022-12-18T23:16:36.115Z,96470.13
2022-12-18T23:19:02.741Z,96478.69
2022-12-18T23:21:29.590Z,96463.41
2022-12-18T23:23:57.058Z,96469.91
2022-12-18T23:26:25.008Z,96476.28
2022-12-18T23:28:52.042Z,96468.72
2022-12-18T23:31:24.818Z,96457.69
2022-12-18T23:33:52.159Z,96461.75
2022-12-18T23:36:20.036Z,96437.66
2022-12-18T23:38:51.468Z,96431.53
2022-12-18T23:41:19.862Z,96429.47
2022-12-18T23:43:46.601Z,96444.19
2022-12-18T23:46:21.526Z,96442.16
2022-12-18T23:48:48.927Z,96433.38
2022-12-18T23:51:16.854Z,96427.03
2022-12-18T23:53:43.752Z,96417.03
2022-12-18T23:56:12.388Z,96407.41
2022-12-18T23:58:39.432Z,96410.88
